Time;durP1;ratioP1;P1;durP2;ratioP2;P2;SDS_P1;SDS_P2;PMS_P1;PMS_P2;Temp;Humidity;BMP_temperature;BMP_pressure;BME280_temperature;BME280_humidity;BME280_pressure;Samples;Min_cycle;Max_cycle;Signal;HPM_P1;HPM_P2
2022/11/14 00:00:06;;;;;;;42.65;37.00;;;;;;;5.64;71.09;96023.94;5135370;28;20203;-73
2022/11/14 00:02:33;;;;;;;45.00;37.95;;;;;;;5.62;70.78;96020.69;5135919;28;20219;-72
2022/11/14 00:05:00;;;;;;;47.65;40.15;;;;;;;5.58;70.44;96027.88;5134973;28;20187;-73
2022/11/14 00:07:29;;;;;;;49.28;41.28;;;;;;;5.55;70.62;96022.97;5134762;28;20613;-74
2022/11/14 00:09:56;;;;;;;44.00;38.30;;;;;;;5.57;70.61;96026.25;5135006;28;20194;-73
2022/11/14 00:12:24;;;;;;;46.33;39.58;;;;;;;5.57;70.62;96020.78;5135143;28;20540;-73
2022/11/14 00:14:51;;;;;;;50.72;41.08;;;;;;;5.56;70.49;96032.84;5135004;28;20203;-73
2022/11/14 00:17:18;;;;;;;47.63;41.22;;;;;;;5.58;70.57;96032.53;5134846;28;20255;-73
2022/11/14 00:19:45;;;;;;;49.63;42.90;;;;;;;5.58;70.58;96033.34;5134693;28;20204;-73
2022/11/14 00:22:12;;;;;;;53.17;44.00;;;;;;;5.51;70.41;96028.25;5135117;28;20215;-73
2022/11/14 00:24:38;;;;;;;51.83;44.05;;;;;;;5.49;70.52;96024.19;5134601;28;20206;-73
2022/11/14 00:27:05;;;;;;;51.55;42.45;;;;;;;5.51;70.66;96027.44;5134836;28;20191;-72
2022/11/14 00:29:33;;;;;;;49.42;41.30;;;;;;;5.48;70.56;96025.28;5135450;28;20236;-72
2022/11/14 00:32:00;;;;;;;52.03;42.60;;;;;;;5.46;70.92;96033.00;5134797;28;20191;-73
2022/11/14 00:34:27;;;;;;;44.88;39.60;;;;;;;5.43;70.52;96028.09;5135305;28;20202;-72
2022/11/14 00:36:54;;;;;;;46.95;38.30;;;;;;;5.41;71.25;96036.63;5134726;28;20199;-72
2022/11/14 00:39:20;;;;;;;46.75;36.95;;;;;;;5.41;71.14;96036.63;5134665;28;20197;-73
2022/11/14 00:41:47;;;;;;;49.88;41.67;;;;;;;5.43;70.94;96034.38;5137507;27;20215;-73
2022/11/14 00:44:14;;;;;;;54.63;43.17;;;;;;;5.43;71.30;96023.44;5139004;27;20193;-73
2022/11/14 00:46:42;;;;;;;48.08;42.45;;;;;;;5.38;70.48;96028.19;5138414;27;20198;-74
2022/11/14 00:49:09;;;;;;;51.60;43.33;;;;;;;5.29;70.12;96023.38;5138178;27;20191;-73
2022/11/14 00:51:36;;;;;;;50.10;42.30;;;;;;;5.26;70.61;96028.63;5138363;27;20191;-73
2022/11/14 00:54:03;;;;;;;51.95;43.08;;;;;;;5.31;70.80;96023.09;5138438;27;20202;-74
2022/11/14 00:56:30;;;;;;;50.35;41.17;;;;;;;5.33;70.58;96020.84;5139415;27;20190;-73
2022/11/14 00:58:57;;;;;;;46.83;39.88;;;;;;;5.26;70.12;96015.75;5138381;27;20202;-73
2022/11/14 01:01:23;;;;;;;47.35;39.65;;;;;;;5.25;70.68;96016.88;5138334;27;20654;-73
2022/11/14 01:03:52;;;;;;;48.72;38.88;;;;;;;5.25;70.30;96013.31;5137917;27;20195;-73
2022/11/14 01:06:20;;;;;;;46.70;39.35;;;;;;;5.29;70.61;96017.09;5138721;27;20191;-73
2022/11/14 01:08:46;;;;;;;43.90;37.58;;;;;;;5.28;70.44;96020.94;5138237;27;20205;-73
2022/11/14 01:11:16;;;;;;;43.17;36.60;;;;;;;5.18;69.83;96021.09;5137893;27;20482;-73
2022/11/14 01:13:43;;;;;;;47.03;38.92;;;;;;;5.11;70.38;96020.63;5137851;27;20207;-72
2022/11/14 01:16:10;;;;;;;47.58;38.63;;;;;;;5.06;70.79;96018.78;5137824;27;20202;-72
2022/11/14 01:18:37;;;;;;;44.60;37.97;;;;;;;5.05;70.70;96015.25;5137890;27;20187;-73
2022/11/14 01:21:07;;;;;;;46.42;38.35;;;;;;;5.11;71.02;96020.63;5137590;27;20203;-73
2022/11/14 01:23:34;;;;;;;45.65;37.00;;;;;;;5.15;71.04;96014.28;5137968;27;20187;-73
2022/11/14 01:26:05;;;;;;;44.15;37.25;;;;;;;5.19;70.97;96019.97;5137863;27;20198;-73
2022/11/14 01:28:32;;;;;;;44.63;36.05;;;;;;;5.20;70.62;96014.22;5137750;27;20187;-73
2022/11/14 01:31:08;;;;;;;41.25;34.60;;;;;;;5.18;70.68;96010.16;5137461;27;20538;-73
2022/11/14 01:33:34;;;;;;;41.80;36.00;;;;;;;5.20;70.58;96006.00;5137519;27;20205;-72
2022/11/14 01:36:01;;;;;;;43.47;36.20;;;;;;;5.22;70.86;96009.25;5138058;27;20194;-72
2022/11/14 01:38:29;;;;;;;42.72;34.58;;;;;;;5.22;70.74;96001.03;5137389;27;20195;-72
2022/11/14 01:40:56;;;;;;;42.42;34.55;;;;;;;5.24;70.94;95998.03;5137370;27;20199;-72
2022/11/14 01:43:28;;;;;;;42.55;34.88;;;;;;;5.24;70.52;96004.31;5137720;27;20241;-72
2022/11/14 01:45:57;;;;;;;46.00;37.05;;;;;;;5.24;70.70;95992.56;5137405;27;20192;-72
2022/11/14 01:48:28;;;;;;;42.78;35.88;;;;;;;5.21;70.80;95993.97;5137119;27;20195;-72
2022/11/14 01:50:58;;;;;;;43.08;36.35;;;;;;;5.23;70.98;95994.50;5137183;27;20199;-72
2022/11/14 01:53:25;;;;;;;44.10;38.28;;;;;;;5.20;70.55;95991.53;5137275;27;20198;-72
2022/11/14 01:55:55;;;;;;;45.35;38.35;;;;;;;5.14;70.38;95979.03;5137469;27;20192;-72
2022/11/14 01:58:22;;;;;;;48.22;39.67;;;;;;;5.12;70.26;95983.97;5137147;27;20535;-73
2022/11/14 02:00:49;;;;;;;47.88;38.75;;;;;;;5.13;70.62;95983.69;5137097;27;20203;-72
2022/11/14 02:03:17;;;;;;;44.33;37.47;;;;;;;5.11;70.54;95977.69;5136587;27;20559;-72
2022/11/14 02:05:45;;;;;;;39.45;33.55;;;;;;;5.10;71.09;95978.81;5137154;27;20195;-73
2022/11/14 02:08:14;;;;;;;37.15;32.50;;;;;;;5.10;71.73;95970.59;5137111;27;20187;-73
2022/11/14 02:10:40;;;;;;;41.25;32.42;;;;;;;5.12;71.96;95975.75;5136639;27;20187;-72
2022/11/14 02:13:09;;;;;;;37.08;30.85;;;;;;;5.14;71.98;95976.28;5136685;27;20187;-72
2022/11/14 02:15:36;;;;;;;35.63;30.17;;;;;;;5.13;72.57;95961.81;5136923;27;20206;-72
2022/11/14 02:18:02;;;;;;;37.85;31.77;;;;;;;5.16;72.39;95963.97;5136781;27;20215;-72
2022/11/14 02:20:34;;;;;;;36.13;31.23;;;;;;;5.18;72.83;95964.47;5136674;27;20195;-72
2022/11/14 02:23:01;;;;;;;37.25;30.98;;;;;;;5.19;72.82;95955.16;5136171;27;20211;-72
2022/11/14 02:25:28;;;;;;;39.53;32.83;;;;;;;5.16;71.66;95963.97;5136419;27;20195;-73
2022/11/14 02:27:56;;;;;;;39.85;31.70;;;;;;;5.02;71.09;95955.69;5136908;27;20187;-73
2022/11/14 02:30:23;;;;;;;37.08;30.83;;;;;;;5.01;71.25;95956.81;5136599;27;20199;-72
2022/11/14 02:32:50;;;;;;;39.22;31.45;;;;;;;4.97;71.09;95957.66;5136150;27;20199;-72
2022/11/14 02:35:17;;;;;;;39.03;31.17;;;;;;;4.88;70.98;95954.78;5136280;27;20195;-72
2022/11/14 02:37:45;;;;;;;36.47;30.17;;;;;;;4.88;71.22;95953.97;5136141;27;20202;-73
2022/11/14 02:40:12;;;;;;;37.58;30.75;;;;;;;4.82;70.93;95959.50;5136281;27;20191;-72
2022/11/14 02:42:39;;;;;;;35.15;29.95;;;;;;;4.71;70.72;95955.28;5135972;27;20230;-72
2022/11/14 02:45:08;;;;;;;38.03;29.70;;;;;;;4.62;71.08;95959.78;5135781;27;20202;-73
2022/11/14 02:47:35;;;;;;;35.35;30.92;;;;;;;4.57;71.31;95965.31;5136103;27;20211;-73
2022/11/14 02:50:01;;;;;;;34.60;30.67;;;;;;;4.47;71.40;95963.53;5136236;27;20206;-72
2022/11/14 02:52:28;;;;;;;35.08;28.58;;;;;;;4.46;71.46;95952.88;5136106;27;20191;-73
2022/11/14 02:54:56;;;;;;;34.05;28.17;;;;;;;4.53;71.71;95961.53;5135911;27;20201;-73
2022/11/14 02:57:23;;;;;;;32.10;27.52;;;;;;;4.50;71.41;95967.56;5136643;27;20198;-73
2022/11/14 02:59:50;;;;;;;37.53;30.52;;;;;;;4.53;72.02;95964.28;5136405;27;20207;-72
2022/11/14 03:02:16;;;;;;;40.53;33.83;;;;;;;4.61;72.21;95965.53;5135693;27;20218;-73
2022/11/14 03:04:43;;;;;;;38.90;33.65;;;;;;;4.67;72.57;95958.91;5135436;27;20195;-72
2022/11/14 03:07:10;;;;;;;40.78;33.80;;;;;;;4.70;72.40;95955.59;5135459;27;20191;-72
2022/11/14 03:09:37;;;;;;;39.55;34.65;;;;;;;4.73;72.28;95944.88;5136246;27;20214;-73
2022/11/14 03:12:05;;;;;;;39.80;35.15;;;;;;;4.75;72.36;95952.78;5135745;27;20206;-72
2022/11/14 03:14:32;;;;;;;40.20;33.60;;;;;;;4.76;72.14;95955.22;5135507;27;20186;-72
2022/11/14 03:16:59;;;;;;;41.47;34.45;;;;;;;4.79;72.07;95956.53;5135238;27;20199;-72
2022/11/14 03:19:25;;;;;;;40.88;34.33;;;;;;;4.79;72.21;95956.53;5135596;27;20191;-72
2022/11/14 03:21:53;;;;;;;39.90;34.55;;;;;;;4.80;72.14;95953.53;5135711;27;20215;-72
2022/11/14 03:24:20;;;;;;;38.55;34.33;;;;;;;4.79;72.07;95951.06;5135243;27;20207;-72
2022/11/14 03:26:47;;;;;;;41.47;32.92;;;;;;;4.83;71.97;95946.69;5135676;27;20206;-72
2022/11/14 03:29:16;;;;;;;39.05;32.70;;;;;;;4.83;71.38;95952.94;5136314;27;20179;-73
2022/11/14 03:31:43;;;;;;;36.05;31.48;;;;;;;4.86;71.62;95945.25;5135529;27;20218;-72
2022/11/14 03:34:10;;;;;;;35.75;31.63;;;;;;;4.88;71.68;95945.78;5135583;27;20194;-73
2022/11/14 03:36:37;;;;;;;37.42;29.10;;;;;;;4.81;71.42;95946.94;5135390;27;20219;-73
2022/11/14 03:39:05;;;;;;;34.50;29.35;;;;;;;4.71;71.48;95952.56;5135274;27;20194;-72
2022/11/14 03:41:32;;;;;;;34.88;29.15;;;;;;;4.65;71.11;95948.28;5135475;27;20202;-72
2022/11/14 03:44:00;;;;;;;32.92;28.83;;;;;;;4.66;71.44;95951.81;5135388;28;20202;-72
2022/11/14 03:46:28;;;;;;;35.92;28.98;;;;;;;4.69;71.86;95946.59;5135152;28;20240;-72
2022/11/14 03:48:55;;;;;;;34.00;27.75;;;;;;;4.74;72.06;95951.16;5135250;28;20195;-73
2022/11/14 03:51:22;;;;;;;36.13;28.55;;;;;;;4.81;72.09;95946.16;5135564;28;20187;-72
2022/11/14 03:53:48;;;;;;;36.35;28.30;;;;;;;4.86;71.93;95950.72;5135529;28;20198;-73
2022/11/14 03:56:15;;;;;;;35.25;28.27;;;;;;;4.83;72.00;95944.75;5135473;28;20202;-72
2022/11/14 03:58:42;;;;;;;36.45;29.95;;;;;;;4.77;72.19;95945.91;5135305;28;20203;-72
2022/11/14 04:01:09;;;;;;;35.50;30.27;;;;;;;4.79;72.51;95938.25;5135203;28;20198;-72
2022/11/14 04:03:37;;;;;;;41.60;33.70;;;;;;;4.83;72.71;95943.94;5134670;28;20650;-72
2022/11/14 04:06:04;;;;;;;38.70;33.95;;;;;;;4.85;72.23;95941.72;5135305;28;20191;-73
2022/11/14 04:08:31;;;;;;;40.75;35.67;;;;;;;4.82;72.37;95940.38;5135225;28;20198;-72
2022/11/14 04:10:58;;;;;;;46.30;40.15;;;;;;;4.79;71.97;95940.16;5134943;28;20210;-72
2022/11/14 04:13:24;;;;;;;44.97;38.03;;;;;;;4.74;72.30;95948.44;5135624;28;20199;-72
2022/11/14 04:15:55;;;;;;;40.95;36.20;;;;;;;4.75;72.67;95948.13;5136189;27;20512;-73
2022/11/14 04:18:21;;;;;;;45.33;36.40;;;;;;;4.80;72.47;95944.53;5138919;27;20195;-72
2022/11/14 04:20:52;;;;;;;43.17;35.97;;;;;;;4.78;72.95;95944.81;5138706;27;20204;-72
2022/11/14 04:23:19;;;;;;;42.42;33.38;;;;;;;4.80;72.87;95947.25;5138977;27;20211;-73
2022/11/14 04:25:46;;;;;;;38.97;32.72;;;;;;;4.86;72.62;95940.59;5139123;27;20205;-73
2022/11/14 04:28:13;;;;;;;39.20;31.73;;;;;;;4.91;72.99;95945.19;5138805;27;20307;-72
2022/11/14 04:30:40;;;;;;;43.58;33.15;;;;;;;4.94;72.66;95937.22;5138948;27;20202;-72
2022/11/14 04:33:07;;;;;;;39.45;31.85;;;;;;;4.98;73.00;95935.50;5138825;27;20202;-72
2022/11/14 04:35:34;;;;;;;38.10;31.33;;;;;;;4.99;72.64;95933.59;5139336;27;20191;-72
2022/11/14 04:38:02;;;;;;;34.20;27.80;;;;;;;5.02;72.60;95933.00;5138836;27;20202;-72
2022/11/14 04:40:29;;;;;;;42.95;32.88;;;;;;;4.96;73.01;95934.97;5138871;27;20207;-71
2022/11/14 04:42:57;;;;;;;34.40;29.50;;;;;;;4.92;72.95;95933.16;5138061;27;20239;-72
2022/11/14 04:45:23;;;;;;;33.60;29.02;;;;;;;4.86;73.03;95931.59;5138861;27;20203;-71
2022/11/14 04:47:50;;;;;;;34.88;28.33;;;;;;;4.80;73.16;95936.31;5138492;27;20598;-72
2022/11/14 04:50:17;;;;;;;34.33;26.50;;;;;;;4.82;73.13;95934.91;5138369;27;20202;-72
2022/11/14 04:52:44;;;;;;;31.40;25.92;;;;;;;4.86;73.03;95931.59;5138086;27;20607;-72
2022/11/14 04:55:12;;;;;;;30.10;26.13;;;;;;;4.87;72.54;95931.31;5138280;27;20199;-72
2022/11/14 04:57:41;;;;;;;32.72;28.27;;;;;;;4.87;72.82;95925.03;5138270;27;20195;-71
2022/11/14 05:00:09;;;;;;;38.88;30.08;;;;;;;4.81;73.08;95927.00;5138289;27;20194;-72
2022/11/14 05:02:36;;;;;;;46.85;35.95;;;;;;;4.76;73.41;95925.16;5138266;27;20573;-72
2022/11/14 05:05:04;;;;;;;53.92;38.13;;;;;;;4.76;74.08;95924.34;5138204;27;20198;-72
2022/11/14 05:07:31;;;;;;;49.38;38.17;;;;;;;4.72;74.47;95929.59;5139060;27;20195;-72
2022/11/14 05:09:57;;;;;;;45.55;35.85;;;;;;;4.73;74.72;95928.50;5138500;27;20195;-72
2022/11/14 05:12:26;;;;;;;51.05;40.30;;;;;;;4.74;74.68;95932.84;5138112;27;20195;-71
2022/11/14 05:14:53;;;;;;;61.33;48.60;;;;;;;4.75;74.83;95944.56;5137711;27;20187;-73
2022/11/14 05:17:20;;;;;;;79.47;58.35;;;;;;;4.74;74.76;95940.22;5137905;27;20199;-73
2022/11/14 05:19:47;;;;;;;76.07;53.95;;;;;;;4.68;74.60;95938.66;5138392;27;20195;-73
2022/11/14 05:22:14;;;;;;;75.07;50.88;;;;;;;4.64;74.75;95943.09;5137904;27;20198;-74
2022/11/14 05:24:41;;;;;;;64.22;44.20;;;;;;;4.59;75.18;95946.72;5137660;27;20282;-74
2022/11/14 05:27:08;;;;;;;56.47;39.10;;;;;;;4.55;75.19;95948.41;5136885;27;20202;-73
2022/11/14 05:29:36;;;;;;;53.75;37.45;;;;;;;4.54;75.72;95950.34;5137586;27;20199;-73
2022/11/14 05:32:03;;;;;;;57.58;38.40;;;;;;;4.54;75.84;95950.34;5137700;27;20595;-74
2022/11/14 05:34:29;;;;;;;72.30;45.05;;;;;;;4.54;76.17;95947.59;5137679;27;20195;-73
2022/11/14 05:36:56;;;;;;;67.07;44.45;;;;;;;4.53;76.71;95954.16;5137268;27;20683;-73
2022/11/14 05:39:23;;;;;;;61.85;41.20;;;;;;;4.51;76.50;95958.31;5138010;27;20183;-73
2022/11/14 05:41:50;;;;;;;59.75;39.78;;;;;;;4.51;76.82;95945.44;5137286;27;20198;-73
2022/11/14 05:44:17;;;;;;;49.37;37.83;;;;;;;4.53;76.96;95956.88;5136739;27;20434;-72
2022/11/14 05:46:45;;;;;;;45.90;34.22;;;;;;;4.55;76.89;95949.22;5136369;27;20471;-71
2022/11/14 05:49:12;;;;;;;43.60;32.53;;;;;;;4.57;76.90;95948.91;5137329;27;20203;-72
2022/11/14 05:51:38;;;;;;;45.83;33.83;;;;;;;4.55;76.91;95951.94;5137124;27;20199;-71
2022/11/14 05:54:05;;;;;;;40.95;33.08;;;;;;;4.41;76.85;95959.22;5136949;27;20207;-71
2022/11/14 05:56:32;;;;;;;43.28;32.72;;;;;;;4.25;77.14;95952.34;5137208;27;20198;-71
2022/11/14 05:58:59;;;;;;;51.47;39.28;;;;;;;4.10;77.89;95959.59;5137392;27;20195;-72
2022/11/14 06:01:26;;;;;;;52.08;40.72;;;;;;;4.02;78.35;95964.88;5136779;27;20199;-71
2022/11/14 06:03:54;;;;;;;49.53;39.30;;;;;;;3.97;78.83;95968.47;5137188;27;20243;-72
2022/11/14 06:06:21;;;;;;;48.05;36.83;;;;;;;3.98;79.06;95963.81;5136786;27;20203;-71
2022/11/14 06:08:49;;;;;;;47.95;37.95;;;;;;;4.03;79.23;95970.06;5136792;27;20191;-71
2022/11/14 06:11:17;;;;;;;48.95;38.22;;;;;;;3.98;79.11;95966.53;5136960;27;20199;-71
2022/11/14 06:13:44;;;;;;;46.28;38.38;;;;;;;3.98;79.34;95972.00;5137132;27;20536;-71
2022/11/14 06:16:12;;;;;;;46.72;37.05;;;;;;;3.96;79.55;95977.78;5136713;27;20191;-71
2022/11/14 06:18:40;;;;;;;46.53;37.17;;;;;;;4.00;79.75;95983.47;5136602;27;20195;-71
2022/11/14 06:21:11;;;;;;;47.10;37.53;;;;;;;3.99;79.49;95981.81;5137429;27;20195;-71
2022/11/14 06:23:38;;;;;;;47.63;38.30;;;;;;;3.95;79.36;95981.56;5136708;27;20211;-71
2022/11/14 06:26:06;;;;;;;45.30;36.97;;;;;;;3.99;79.83;95976.34;5137152;27;20592;-71
2022/11/14 06:28:33;;;;;;;49.33;38.60;;;;;;;4.09;79.80;95976.25;5136517;27;20198;-71
2022/11/14 06:31:01;;;;;;;45.95;37.33;;;;;;;4.16;79.63;95974.00;5137338;27;20179;-71
2022/11/14 06:33:28;;;;;;;45.67;36.53;;;;;;;4.15;79.37;95975.09;5137488;27;20236;-71
2022/11/14 06:35:59;;;;;;;46.60;36.85;;;;;;;4.11;79.34;95984.97;5136689;27;20199;-71
2022/11/14 06:38:27;;;;;;;43.65;36.55;;;;;;;4.11;79.74;95976.78;5136380;27;20263;-71
2022/11/14 06:41:01;;;;;;;47.45;37.88;;;;;;;4.09;79.78;95976.25;5136838;27;20199;-72
2022/11/14 06:43:28;;;;;;;47.15;37.38;;;;;;;4.14;79.82;95970.75;5136754;27;20226;-72
2022/11/14 06:45:55;;;;;;;42.90;36.17;;;;;;;4.17;80.14;95972.88;5136157;27;20205;-71
2022/11/14 06:48:21;;;;;;;43.95;34.97;;;;;;;4.18;79.55;95968.25;5136741;27;20188;-71
2022/11/14 06:50:52;;;;;;;42.60;34.85;;;;;;;4.16;79.65;95968.53;5136639;27;20599;-71
2022/11/14 06:53:18;;;;;;;41.67;33.97;;;;;;;4.20;79.75;95964.13;5137177;27;20183;-71
2022/11/14 06:55:54;;;;;;;45.33;36.47;;;;;;;4.25;79.76;95964.06;5135768;27;20269;-71
2022/11/14 06:58:21;;;;;;;49.15;38.15;;;;;;;4.23;79.52;95966.25;5136776;27;20183;-71
2022/11/14 07:00:48;;;;;;;47.20;37.83;;;;;;;4.26;79.85;95956.69;5135965;27;20199;-71
2022/11/14 07:03:15;;;;;;;48.95;38.70;;;;;;;4.33;80.21;95959.88;5135799;27;20214;-72
2022/11/14 07:05:42;;;;;;;48.42;37.25;;;;;;;4.39;80.24;95957.88;5135546;27;20198;-71
2022/11/14 07:08:09;;;;;;;46.92;37.85;;;;;;;4.38;79.94;95965.28;5136736;27;20209;-73
2022/11/14 07:10:35;;;;;;;47.28;38.10;;;;;;;4.36;79.86;95962.03;5136451;27;20198;-73
2022/11/14 07:13:03;;;;;;;49.85;39.85;;;;;;;4.38;80.02;95959.00;5135744;27;20260;-72
2022/11/14 07:15:30;;;;;;;49.40;39.35;;;;;;;4.36;79.70;95970.22;5136726;27;20205;-72
2022/11/14 07:17:58;;;;;;;50.97;41.00;;;;;;;4.39;79.96;95960.63;5135759;27;20195;-71
2022/11/14 07:20:25;;;;;;;52.95;37.72;;;;;;;4.57;80.32;95959.84;5135547;27;20199;-71
2022/11/14 07:22:52;;;;;;;47.72;37.28;;;;;;;4.69;79.75;95960.25;5135477;27;20202;-71
2022/11/14 07:25:19;;;;;;;51.33;41.22;;;;;;;4.66;79.12;95960.84;5135611;27;20536;-72
2022/11/14 07:27:46;;;;;;;50.83;41.20;;;;;;;4.63;79.30;95966.88;5135839;27;20195;-72
2022/11/14 07:30:15;;;;;;;54.17;41.53;;;;;;;4.57;79.38;95960.69;5135468;27;20203;-71
2022/11/14 07:32:42;;;;;;;50.47;40.67;;;;;;;4.61;79.54;95963.59;5135365;27;20202;-71
2022/11/14 07:35:09;;;;;;;54.75;40.75;;;;;;;4.65;79.53;95961.09;5135004;27;20543;-72
2022/11/14 07:37:36;;;;;;;54.83;39.90;;;;;;;4.65;79.37;95956.47;5135439;27;20195;-72
2022/11/14 07:40:03;;;;;;;52.45;40.75;;;;;;;4.72;79.50;95950.63;5135151;27;20224;-72
2022/11/14 07:42:29;;;;;;;55.35;42.53;;;;;;;4.79;79.53;95940.97;5135282;27;20720;-72
2022/11/14 07:44:56;;;;;;;55.45;41.97;;;;;;;4.75;79.35;95947.31;5135140;28;20228;-72
2022/11/14 07:47:24;;;;;;;54.47;42.70;;;;;;;4.77;80.06;95945.09;5135601;28;20210;-72
2022/11/14 07:49:51;;;;;;;57.40;44.22;;;;;;;4.78;79.73;95952.19;5136626;27;20202;-72
2022/11/14 07:52:18;;;;;;;60.60;46.38;;;;;;;4.81;79.80;95955.16;5139459;27;20195;-71
2022/11/14 07:54:45;;;;;;;58.60;45.40;;;;;;;4.85;80.10;95943.63;5139714;27;20206;-71
2022/11/14 07:57:11;;;;;;;60.00;44.30;;;;;;;4.86;79.69;95937.84;5139401;27;20195;-71
2022/11/14 07:59:38;;;;;;;58.47;44.38;;;;;;;4.80;79.83;95941.78;5139551;27;20538;-72
2022/11/14 08:02:05;;;;;;;60.70;45.58;;;;;;;4.82;79.68;95940.38;5139174;27;20187;-72
2022/11/14 08:04:33;;;;;;;66.35;47.60;;;;;;;4.90;79.82;95938.91;5139310;27;20223;-72
2022/11/14 08:07:00;;;;;;;64.18;47.75;;;;;;;4.94;79.70;95931.75;5140046;27;20647;-72
2022/11/14 08:09:26;;;;;;;65.47;48.78;;;;;;;4.91;79.36;95937.00;5139778;27;20199;-72
2022/11/14 08:11:53;;;;;;;68.28;51.70;;;;;;;4.92;79.48;95936.69;5139210;27;20199;-72
2022/11/14 08:14:20;;;;;;;66.35;52.03;;;;;;;4.86;79.35;95940.59;5139336;27;20214;-72
2022/11/14 08:16:47;;;;;;;70.82;50.60;;;;;;;4.81;79.78;95940.69;5138744;27;20187;-72
2022/11/14 08:19:15;;;;;;;76.25;54.35;;;;;;;4.87;80.16;95941.44;5139023;27;20191;-72
2022/11/14 08:21:43;;;;;;;76.35;56.78;;;;;;;4.84;79.75;95940.09;5139230;27;20191;-72
2022/11/14 08:24:10;;;;;;;75.18;55.42;;;;;;;4.82;80.02;95937.63;5138816;27;20222;-72
2022/11/14 08:26:38;;;;;;;77.03;56.60;;;;;;;4.89;80.20;95939.19;5138965;27;20195;-71
2022/11/14 08:29:05;;;;;;;81.25;58.25;;;;;;;4.96;80.51;95939.63;5138581;27;20209;-71
2022/11/14 08:31:31;;;;;;;79.15;52.65;;;;;;;5.02;80.40;95924.78;5139291;27;20213;-72
2022/11/14 08:33:59;;;;;;;77.93;47.35;;;;;;;5.21;80.09;95933.78;5139953;27;20191;-72
2022/11/14 08:36:26;;;;;;;67.97;46.22;;;;;;;5.31;79.96;95930.88;5138718;27;20203;-72
2022/11/14 08:38:54;;;;;;;73.28;54.00;;;;;;;5.38;79.51;95930.50;5138641;27;20293;-72
2022/11/14 08:41:21;;;;;;;78.07;54.42;;;;;;;5.42;79.50;95925.25;5139378;27;20191;-72
2022/11/14 08:43:48;;;;;;;75.38;54.38;;;;;;;5.48;79.52;95921.31;5138048;27;20230;-72
2022/11/14 08:46:15;;;;;;;68.95;51.78;;;;;;;5.51;79.85;95927.00;5138623;27;20194;-72
2022/11/14 08:48:41;;;;;;;71.50;52.03;;;;;;;5.50;79.46;95919.91;5138314;27;20187;-72
2022/11/14 08:51:08;;;;;;;66.25;50.90;;;;;;;5.48;79.24;95918.56;5138070;27;20206;-72
2022/11/14 08:53:35;;;;;;;67.75;49.22;;;;;;;5.47;79.35;95917.75;5138377;27;20199;-72
2022/11/14 08:56:03;;;;;;;69.57;50.00;;;;;;;5.47;79.38;95911.47;5138953;27;20195;-72
2022/11/14 08:58:31;;;;;;;75.22;53.38;;;;;;;5.49;79.61;95912.00;5138354;27;20198;-72
2022/11/14 09:01:01;;;;;;;74.63;53.25;;;;;;;5.51;79.90;95910.56;5137517;27;20204;-72
2022/11/14 09:03:28;;;;;;;77.93;55.22;;;;;;;5.52;79.82;95903.19;5137869;27;20225;-72
2022/11/14 09:05:55;;;;;;;77.90;55.10;;;;;;;5.55;80.08;95897.09;5138203;27;20202;-72
2022/11/14 09:08:22;;;;;;;82.10;58.13;;;;;;;5.61;79.87;95901.38;5138111;27;20191;-72
2022/11/14 09:10:49;;;;;;;73.20;52.53;;;;;;;5.68;79.97;95890.84;5137955;27;20202;-72
2022/11/14 09:13:17;;;;;;;80.80;58.25;;;;;;;5.76;80.09;95898.38;5137634;27;20191;-72
2022/11/14 09:15:44;;;;;;;83.32;57.40;;;;;;;5.78;79.33;95889.88;5138157;27;20210;-72
2022/11/14 09:18:11;;;;;;;79.53;58.08;;;;;;;5.83;79.62;95883.47;5137644;27;20197;-72
2022/11/14 09:20:39;;;;;;;79.82;56.97;;;;;;;5.85;79.41;95889.47;5138056;27;20194;-72
2022/11/14 09:23:06;;;;;;;73.13;54.55;;;;;;;5.93;79.47;95884.13;5137530;27;20208;-72
2022/11/14 09:25:33;;;;;;;69.50;53.30;;;;;;;5.95;79.26;95878.34;5137581;27;20214;-72
2022/11/14 09:28:04;;;;;;;67.15;53.38;;;;;;;6.05;78.98;95883.63;5137672;27;20199;-72
2022/11/14 09:30:32;;;;;;;63.63;51.92;;;;;;;6.13;78.71;95880.16;5137423;27;20190;-72
2022/11/14 09:33:00;;;;;;;66.72;51.22;;;;;;;6.21;78.21;95871.25;5137977;27;20225;-72
2022/11/14 09:35:27;;;;;;;63.75;51.53;;;;;;;6.25;77.84;95864.03;5138090;27;20259;-72
2022/11/14 09:37:59;;;;;;;71.20;56.40;;;;;;;6.27;77.35;95866.47;5137871;27;20186;-72
2022/11/14 09:40:26;;;;;;;75.32;58.58;;;;;;;6.35;77.55;95867.66;5137504;27;20195;-72
2022/11/14 09:43:03;;;;;;;79.00;60.97;;;;;;;6.47;77.87;95860.56;5137380;27;20231;-72
2022/11/14 09:45:31;;;;;;;76.13;60.47;;;;;;;6.61;78.07;95860.53;5137621;27;20226;-71
2022/11/14 09:48:06;;;;;;;84.32;65.38;;;;;;;6.85;78.24;95856.69;5137484;27;20649;-72
2022/11/14 09:50:34;;;;;;;87.03;70.05;;;;;;;7.01;77.54;95849.75;5137465;27;20199;-72
2022/11/14 09:53:03;;;;;;;85.57;66.72;;;;;;;7.18;77.16;95847.09;5137211;27;20194;-72
2022/11/14 09:55:32;;;;;;;83.18;65.88;;;;;;;7.38;76.89;95840.31;5137807;27;20602;-72
2022/11/14 09:57:58;;;;;;;79.05;56.38;;;;;;;7.59;76.94;95843.34;5137264;27;20198;-72
2022/11/14 10:00:28;;;;;;;73.93;56.83;;;;;;;7.80;77.01;95840.84;5137140;27;20209;-72
2022/11/14 10:03:04;;;;;;;75.43;56.53;;;;;;;7.94;75.79;95838.78;5137204;27;20190;-72
2022/11/14 10:05:43;;;;;;;57.88;44.45;;;;;;;8.09;75.00;95828.50;5137051;27;20271;-72
2022/11/14 10:08:40;;;;;;;53.95;43.15;;;;;;;8.31;74.66;95825.66;5136869;27;20195;-72
2022/11/14 10:11:09;;;;;;;43.22;36.55;;;;;;;8.41;73.87;95819.09;5133710;27;20215;-72
2022/11/14 10:14:01;;;;;;;44.83;37.28;;;;;;;8.48;73.03;95829.63;5136656;27;20206;-73
2022/11/14 10:16:34;;;;;;;41.47;35.30;;;;;;;8.60;72.91;95816.84;5111244;27;20202;-72
2022/11/14 10:19:13;;;;;;;46.80;38.88;;;;;;;8.73;72.86;95806.03;5137003;27;20193;-70
2022/11/14 10:21:51;;;;;;;49.03;39.25;;;;;;;8.79;72.15;95811.06;5136895;27;20190;-72
2022/11/14 10:24:40;;;;;;;51.25;40.38;;;;;;;8.84;72.11;95802.63;5136757;27;20218;-72
2022/11/14 10:27:12;;;;;;;49.78;40.40;;;;;;;8.90;71.98;95792.28;5136458;27;20198;-72
2022/11/14 10:29:56;;;;;;;52.88;40.88;;;;;;;8.92;71.34;95785.28;5136463;27;20541;-72
2022/11/14 10:32:32;;;;;;;52.95;42.63;;;;;;;8.97;71.01;95789.84;5136111;27;20203;-72
2022/11/14 10:35:04;;;;;;;56.20;43.00;;;;;;;8.99;70.30;95787.56;5136034;27;20186;-72
2022/11/14 10:37:33;;;;;;;54.40;43.78;;;;;;;9.01;69.78;95781.75;5136647;27;20195;-72
2022/11/14 10:40:04;;;;;;;50.97;41.78;;;;;;;9.09;69.94;95775.41;5136418;27;20191;-72
2022/11/14 10:42:34;;;;;;;55.45;42.97;;;;;;;9.19;69.72;95775.09;5136524;27;20235;-72
2022/11/14 10:45:05;;;;;;;53.13;41.75;;;;;;;9.27;69.48;95770.69;5135720;27;20214;-72
2022/11/14 10:47:37;;;;;;;52.45;42.85;;;;;;;9.37;69.76;95762.09;5136384;27;20201;-72
2022/11/14 10:50:16;;;;;;;56.30;44.75;;;;;;;9.43;69.50;95762.72;5136062;27;20183;-72
2022/11/14 10:52:44;;;;;;;50.42;41.13;;;;;;;9.43;68.72;95758.00;5136126;27;20195;-72
2022/11/14 10:55:14;;;;;;;60.20;45.58;;;;;;;9.51;68.46;95759.09;5136033;27;20191;-72
2022/11/14 10:57:41;;;;;;;61.13;50.17;;;;;;;9.54;68.54;95755.69;5136443;27;20202;-72
2022/11/14 11:00:12;;;;;;;69.57;56.88;;;;;;;9.60;68.73;95746.94;5135953;27;20198;-72
2022/11/14 11:02:50;;;;;;;67.68;56.83;;;;;;;9.63;68.43;95753.75;5135864;27;20221;-72
2022/11/14 11:05:20;;;;;;;61.33;49.63;;;;;;;9.69;68.17;95749.63;5135881;27;20203;-71
2022/11/14 11:13:32;;;;;;;61.50;47.88;;;;;;;9.67;66.95;95740.13;5135854;27;20187;-71
2022/11/14 11:16:00;;;;;;;54.35;44.47;;;;;;;9.70;66.67;95733.94;5136649;27;20236;-71
2022/11/14 11:18:29;;;;;;;56.50;45.95;;;;;;;9.74;67.90;95732.94;5135874;27;20578;-71
2022/11/14 11:21:07;;;;;;;56.38;46.33;;;;;;;9.79;66.75;95734.69;5135665;27;20183;-71
2022/11/14 11:23:33;;;;;;;59.30;46.13;;;;;;;9.85;66.83;95733.38;5135892;27;20603;-71
2022/11/14 11:26:04;;;;;;;61.38;44.78;;;;;;;9.91;67.08;95726.53;5135366;27;20219;-71
2022/11/14 11:28:32;;;;;;;58.97;43.83;;;;;;;9.92;66.23;95719.91;5135460;27;20627;-71
2022/11/14 11:31:00;;;;;;;56.53;44.50;;;;;;;9.97;66.64;95716.94;5135420;27;20545;-71
2022/11/14 11:33:29;;;;;;;61.03;47.50;;;;;;;10.01;66.40;95717.88;5136116;27;20238;-71